Date,TemperatureHighF,TemperatureAvgF,TemperatureLowF,DewpointHighF,DewpointAvgF,DewpointLowF,HumidityHigh,HumidityAvg,HumidityLow,PressureMaxIn,PressureMinIn,WindSpeedMaxMPH,WindSpeedAvgMPH,GustSpeedMaxMPH,PrecipitationSumIn
2013-1-1,49.8,47.9,44.6,48.9,40.1,28.1,98,77,45,30.15,29.97,12,2,12,0.19
2013-1-2,49.0,43.6,39.7,48.5,42.1,38.4,98,95,86,30.23,29.96,11,2,11,0.20
2013-1-3,44.3,39.5,31.5,38.9,36.6,30.2,96,90,74,30.30,30.19,6,1,6,0.00
2013-1-4,50.4,39.3,28.7,30.8,27.1,22.0,95,65,37,30.36,30.23,12,2,14,0.01
2013-1-5,51.1,40.0,28.5,32.8,26.6,22.9,81,60,35,30.43,30.30,10,1,10,0.00
2013-1-6,49.7,42.9,36.6,39.7,36.9,31.2,93,80,60,30.30,30.10,6,1,7,0.01
2013-1-7,53.8,41.2,31.3,35.8,32.5,28.4,95,73,45,30.49,30.22,9,1,10,0.00
2013-1-8,55.1,41.9,30.2,40.9,35.3,28.0,95,79,52,30.51,30.42,5,0,5,0.00
2013-1-9,68.4,51.4,35.1,52.0,44.1,33.5,96,78,52,30.49,30.38,10,1,10,0.00
2013-1-10,64.7,53.5,46.8,48.9,44.3,36.1,96,73,51,30.57,30.44,9,1,11,0.00
2013-1-11,51.6,47.8,42.7,51.2,43.7,33.0,99,87,59,30.48,30.18,7,1,7,0.19
2013-1-12,68.5,57.7,50.4,63.2,56.3,50.1,99,95,80,30.20,30.13,4,0,4,0.00
2013-1-13,75.4,62.7,54.4,63.3,58.7,54.1,99,88,61,30.17,30.08,10,2,12,0.00
2013-1-14,68.3,63.1,57.9,63.7,60.2,56.4,97,90,81,30.19,30.11,11,1,12,0.02
2013-1-15,58.3,46.0,44.3,56.3,45.1,43.4,99,97,93,30.28,30.09,9,2,9,0.02
2013-1-16,49.7,46.3,43.9,49.4,45.9,43.4,99,98,98,30.11,30.01,11,2,11,0.10
2013-1-17,50.8,46.2,33.0,50.5,45.7,32.3,99,98,95,30.17,29.94,11,2,14,0.74
2013-1-18,46.0,36.8,29.4,34.7,30.8,24.4,98,81,44,30.58,30.17,15,3,15,0.24
2013-1-19,53.8,36.8,25.7,34.4,29.0,24.2,95,77,34,30.56,30.19,9,1,9,0.01
2013-1-20,65.4,51.5,36.8,37.0,33.6,30.4,84,52,31,30.19,30.01,12,2,13,0.00
2013-1-21,59.7,45.8,29.8,34.9,28.7,19.2,94,56,28,30.12,29.89,11,2,13,0.00
2013-1-22,43.7,34.1,25.2,19.8,7.2,-1.6,48,33,19,30.33,29.98,18,4,20,0.00
2013-1-23,41.3,30.3,18.6,17.2,12.0,4.3,83,49,28,30.44,30.11,12,1,12,0.00
2013-1-24,36.6,31.3,22.1,26.2,15.9,6.4,74,53,29,30.58,30.00,23,3,26,0.00
2013-1-25,28.8,24.5,19.4,26.9,17.1,6.7,94,75,44,30.58,30.16,7,1,7,0.01
2013-1-26,36.2,30.8,27.3,33.2,29.0,25.7,96,93,86,30.45,30.14,5,0,5,0.08
2013-1-27,40.0,31.8,24.4,30.2,27.1,23.2,96,83,64,30.66,30.45,10,1,10,0.04
2013-1-28,52.6,41.7,31.5,48.5,36.2,27.1,92,81,65,30.56,30.26,9,2,9,0.02
2013-1-29,73.6,60.1,49.9,57.8,52.8,47.4,93,78,55,30.27,30.10,10,2,11,0.00
2013-1-30,72.0,67.1,60.1,64.8,62.3,56.8,94,85,75,30.10,29.40,30,9,32,0.02
2013-1-31,68.6,48.8,37.3,64.6,32.5,20.6,91,56,32,30.05,29.40,25,3,25,0.36
2013-2-1,42.2,35.8,26.0,29.1,15.1,3.5,69,44,25,30.44,29.91,28,4,28,0.00
2013-2-2,44.9,33.7,19.2,36.0,14.0,7.4,76,46,28,30.46,30.08,13,2,14,0.00
2013-2-3,50.1,42.4,35.9,37.1,31.0,24.5,90,66,41,30.08,29.89,13,2,13,0.00
2013-2-4,49.8,39.0,26.7,27.8,24.0,20.5,87,57,33,30.19,30.02,9,2,12,0.00
2013-2-5,61.1,47.2,39.0,36.7,33.0,27.5,83,59,35,30.06,29.91,11,2,11,0.00
2013-2-6,62.3,46.3,31.1,37.5,30.6,22.5,94,60,23,30.34,30.01,12,2,13,0.00
2013-2-7,49.3,42.3,35.4,42.7,37.7,33.4,96,84,68,30.38,30.03,9,2,9,0.30
2013-2-8,56.0,46.4,39.7,46.5,40.7,30.2,97,82,57,30.07,29.84,19,5,19,0.46
2013-2-9,52.0,40.5,28.7,30.6,24.5,17.6,90,56,27,30.40,30.06,17,3,17,0.00
2013-2-10,53.7,41.2,28.2,40.5,24.3,19.5,86,53,28,30.53,30.26,10,1,10,0.02
2013-2-11,63.4,55.7,44.3,60.0,53.0,39.5,98,91,83,30.27,29.95,16,3,16,0.03
2013-2-12,61.9,54.3,47.4,55.1,36.6,26.9,90,54,28,30.11,29.93,11,1,13,0.00
2013-2-13,48.8,46.3,43.6,47.1,44.0,37.8,98,92,68,29.99,29.65,10,1,11,0.27
2013-2-14,52.6,42.6,32.0,37.8,34.5,30.4,96,75,48,30.12,29.86,10,1,11,0.00
2013-2-15,62.8,45.9,30.5,40.7,33.6,28.6,95,67,30,30.14,29.97,13,1,14,0.00
2013-2-16,47.1,37.0,30.7,37.1,33.3,29.2,96,87,64,30.01,29.86,13,4,19,0.29
2013-2-17,37.7,31.0,25.6,29.6,16.4,9.6,94,57,33,30.33,29.95,22,4,22,0.02
2013-2-18,51.9,33.9,18.8,26.5,18.8,14.5,90,59,25,30.47,30.31,13,2,13,0.00
2013-2-19,53.9,44.6,33.9,50.7,39.5,26.3,95,82,59,30.31,29.89,23,3,23,0.06
2013-2-20,54.4,43.6,34.4,40.2,20.5,12.3,93,43,19,30.19,29.99,15,2,16,0.00
2013-2-21,54.8,41.2,26.7,25.9,21.1,16.7,82,47,25,30.32,30.15,10,2,12,0.00
2013-2-22,41.8,36.4,32.3,36.1,32.2,21.7,97,86,46,30.40,30.18,7,1,9,0.31
2013-2-23,43.8,40.5,36.4,43.0,39.7,35.6,98,97,96,30.18,29.85,9,2,9,0.50
2013-2-24,63.0,51.0,43.6,47.3,39.3,27.1,98,69,32,30.07,29.82,12,2,12,0.07
2013-2-25,45.4,38.0,32.5,31.9,25.9,23.0,74,62,47,30.27,30.07,9,2,11,0.00
2013-2-26,57.8,45.3,35.0,57.2,42.3,27.1,99,89,69,30.20,29.60,14,2,15,0.70
2013-2-27,61.1,51.6,44.1,47.8,41.3,35.9,96,71,41,29.81,29.65,11,2,15,0.00
2013-2-28,50.0,43.3,37.2,40.1,32.9,27.7,93,68,46,29.89,29.72,11,1,16,0.00
2013-3-1,50.4,40.2,28.3,32.9,29.3,25.6,91,67,43,29.95,29.87,13,2,13,0.00
2013-3-2,50.1,40.6,32.9,30.8,26.5,21.0,81,58,40,29.95,29.85,15,3,15,0.00
2013-3-3,47.7,37.4,30.3,23.5,21.1,17.1,68,52,36,30.02,29.88,15,3,19,0.00
2013-3-4,51.1,36.9,26.9,24.8,17.8,14.2,76,48,24,30.15,30.01,22,2,22,0.00
2013-3-5,51.2,42.1,32.4,44.4,35.3,22.8,97,79,40,30.13,29.62,10,1,12,0.34
2013-3-6,45.0,41.3,36.6,42.8,34.7,28.8,98,78,59,30.05,29.53,34,6,34,0.00
2013-3-7,50.3,41.6,34.0,33.4,30.4,27.2,83,65,47,30.27,30.05,16,4,18,0.00
2013-3-8,55.0,43.7,32.5,30.4,27.0,24.1,77,54,32,30.32,30.18,21,5,21,0.00
2013-3-9,62.8,47.3,35.4,34.0,29.7,26.6,77,53,27,30.37,30.27,12,2,13,0.00
2013-3-10,66.9,50.6,31.4,35.5,27.6,18.4,92,49,16,30.36,30.25,8,1,11,0.00
2013-3-11,70.1,56.4,38.6,53.1,44.1,27.5,91,65,41,30.29,29.99,18,3,21,0.00
2013-3-12,70.1,61.5,49.9,61.8,54.7,35.7,97,80,50,29.99,29.77,16,5,18,0.28
2013-3-13,59.2,47.5,35.2,36.3,29.1,19.0,88,52,27,30.16,29.96,17,3,20,0.00
2013-3-14,54.7,41.2,31.1,25.9,20.2,16.2,63,45,23,30.27,30.13,15,3,16,0.00
2013-3-15,63.2,47.6,28.3,36.3,28.3,20.4,83,50,30,30.22,29.93,16,2,16,0.00
2013-3-16,79.0,62.3,46.8,52.2,44.4,35.6,80,54,33,29.93,29.67,14,2,17,0.00
2013-3-17,65.0,51.5,40.5,52.8,45.6,38.0,96,81,62,30.23,29.85,9,2,11,0.00
2013-3-18,43.1,40.6,37.8,42.0,39.6,36.8,98,96,94,30.24,29.91,9,1,12,0.23
2013-3-19,68.6,52.0,40.5,48.3,35.1,13.8,98,63,19,30.05,29.85,17,2,17,0.01
2013-3-20,56.3,47.4,38.5,28.3,16.9,9.3,62,31,19,30.15,29.83,11,2,11,0.00
2013-3-21,47.5,40.1,32.1,32.8,20.9,10.2,75,47,29,30.01,29.76,21,5,21,0.00
2013-3-22,52.4,38.6,25.6,26.5,16.3,11.7,69,43,20,30.12,30.00,11,2,11,0.00
2013-3-23,55.5,44.9,34.9,33.3,27.7,18.7,79,54,29,30.10,29.95,7,1,7,0.00
2013-3-24,41.2,38.3,34.7,38.8,35.3,30.3,96,89,75,29.98,29.60,12,2,13,0.52
2013-3-25,49.7,40.8,35.2,38.2,31.8,24.1,97,74,41,29.84,29.58,18,2,18,0.01
2013-3-26,49.8,43.2,35.2,31.0,28.1,24.9,72,56,43,30.14,29.84,14,3,15,0.00
2013-3-27,53.2,43.3,34.1,29.9,25.7,21.8,79,52,31,30.26,30.14,18,3,18,0.00
2013-3-28,57.1,44.8,32.6,30.1,26.0,22.9,78,51,28,30.33,30.17,17,3,18,0.00
2013-3-29,61.2,47.1,30.5,32.4,27.9,24.1,93,52,26,30.37,30.21,12,1,14,0.00
2013-3-30,67.0,52.2,36.2,44.2,34.6,26.1,86,56,26,30.28,30.12,10,1,11,0.00
2013-3-31,68.9,57.1,47.7,56.8,51.0,43.0,97,81,64,30.14,29.83,13,2,14,0.47
2013-4-1,73.6,61.6,52.7,54.7,47.6,35.1,98,66,31,30.01,29.83,17,2,17,0.03
2013-4-2,61.2,49.1,38.3,34.9,28.9,21.5,79,48,23,30.19,30.01,16,2,21,0.00
2013-4-3,61.3,49.5,39.7,32.8,24.1,18.0,65,39,20,30.33,30.17,13,2,13,0.00
2013-4-4,50.3,43.2,39.6,41.0,33.2,23.6,96,70,40,30.41,29.96,12,2,12,0.60
2013-4-5,64.3,49.1,39.7,48.4,43.4,38.7,97,83,51,30.05,29.89,13,3,13,0.03
2013-4-6,64.8,53.4,40.6,44.1,33.7,26.2,95,51,26,30.33,30.05,10,2,11,0.00
2013-4-7,72.2,55.6,35.8,47.0,38.8,32.7,91,57,34,30.33,30.15,13,3,16,0.00
2013-4-8,78.9,66.2,51.2,57.4,52.3,46.9,94,64,40,30.21,30.07,13,3,15,0.00
2013-4-9,86.3,72.4,56.4,60.3,57.1,54.4,95,62,35,30.20,30.07,14,2,14,0.00
2013-4-10,88.6,75.5,63.2,62.6,59.6,56.5,85,61,34,30.12,29.95,16,4,16,0.00
2013-4-11,82.5,72.7,63.8,66.8,60.7,58.0,89,68,45,30.02,29.82,16,4,16,0.00
2013-4-12,81.4,72.9,66.6,69.8,63.9,44.8,95,75,44,29.84,29.62,18,6,23,0.28
2013-4-13,75.5,66.3,55.1,47.4,41.9,37.5,70,43,27,30.03,29.77,13,2,13,0.00
2013-4-14,81.8,66.7,47.4,54.2,45.1,36.0,94,53,21,30.13,30.03,10,2,12,0.00
2013-4-15,72.7,65.9,59.6,59.8,56.7,51.5,87,73,56,30.24,30.05,12,2,13,0.01
2013-4-16,76.7,64.6,57.2,61.5,58.2,55.6,97,82,50,30.34,30.23,7,1,9,0.00
2013-4-17,84.3,70.9,57.7,66.2,61.6,56.3,96,75,49,30.26,30.13,11,2,12,0.00
2013-4-18,80.8,70.7,61.4,63.7,60.2,56.4,92,71,47,30.23,30.07,14,3,16,0.00
2013-4-19,83.4,71.9,65.6,68.4,65.5,61.3,96,82,57,30.08,29.74,30,6,30,0.35
2013-4-20,65.8,55.9,47.8,64.9,43.4,32.1,97,65,32,30.31,29.84,16,3,18,0.05
2013-4-21,62.2,52.7,42.1,43.6,40.6,37.3,94,66,44,30.53,30.30,13,2,13,0.00
2013-4-22,62.7,49.9,37.0,47.5,40.6,34.1,92,72,46,30.53,30.31,13,3,13,0.04
2013-4-23,67.1,55.2,48.6,51.7,47.3,44.4,89,76,52,30.31,30.16,12,3,12,0.00
2013-4-24,78.5,63.5,47.6,56.6,52.5,45.7,95,71,43,30.19,29.99,16,3,17,0.00
2013-4-25,71.6,62.5,53.3,57.6,48.1,39.9,86,61,34,30.30,30.03,13,3,16,0.00
2013-4-26,73.6,61.2,48.6,52.2,42.8,32.4,96,58,24,30.45,30.30,9,1,9,0.00
2013-4-27,75.3,64.1,52.2,50.2,44.4,40.9,77,51,31,30.41,30.28,11,2,11,0.00
2013-4-28,63.7,59.1,54.4,57.4,49.6,41.5,96,72,53,30.30,30.14,7,1,7,0.40
2013-4-29,70.4,62.2,54.5,65.4,60.0,53.4,98,93,76,30.14,30.00,6,1,6,0.97
2013-4-30,67.4,61.7,58.0,61.7,59.1,55.7,99,91,77,30.20,30.02,12,2,12,0.01
2013-5-1,62.0,58.9,57.8,59.7,57.1,55.9,97,93,90,30.36,30.18,10,2,12,0.01
2013-5-2,63.2,59.2,53.7,58.1,56.0,50.8,95,89,81,30.37,30.28,9,1,9,0.00
2013-5-3,71.4,58.6,48.6,57.0,50.3,44.4,96,76,46,30.30,30.20,12,2,13,0.00
2013-5-4,64.7,56.3,49.3,55.0,49.8,45.7,91,79,65,30.25,30.12,12,2,13,0.00
2013-5-5,61.0,55.7,49.7,57.2,52.1,46.7,93,87,80,30.13,30.03,13,2,13,0.00
2013-5-6,67.1,61.0,55.9,65.0,59.4,54.9,97,95,87,30.05,29.86,14,2,14,0.67
2013-5-7,72.5,61.9,53.9,60.3,54.5,48.4,98,79,44,29.98,29.88,16,2,16,0.01
2013-5-8,73.3,61.8,52.9,62.1,55.9,50.3,97,83,57,30.05,29.95,11,1,14,0.17
2013-5-9,83.0,68.1,55.7,61.8,57.8,54.5,99,74,39,30.09,30.00,10,1,10,0.02
2013-5-10,86.5,72.4,56.6,64.2,59.6,54.6,95,68,40,30.09,29.97,16,2,16,0.00
2013-5-11,84.8,73.6,68.0,68.1,63.4,59.1,96,72,46,29.99,29.81,16,4,17,0.24
2013-5-12,74.3,66.7,55.6,65.9,51.6,36.8,95,62,32,30.05,29.81,14,3,15,0.01
2013-5-13,67.5,57.9,47.3,43.3,37.8,31.7,77,50,28,30.21,30.05,12,2,17,0.00
2013-5-14,72.2,58.7,42.1,47.5,39.8,31.9,91,54,25,30.29,30.11,12,1,13,0.00
2013-5-15,89.1,69.5,55.2,62.8,53.8,44.3,81,59,37,30.12,29.91,9,3,11,0.00
2013-5-16,88.7,77.3,63.3,64.1,60.7,56.0,90,59,38,29.99,29.91,13,1,13,0.00
2013-5-17,89.3,76.8,62.0,65.0,61.8,58.5,93,63,37,30.11,29.99,8,1,10,0.00
2013-5-18,78.4,70.5,64.0,71.2,65.9,61.3,96,86,71,30.19,30.09,7,1,10,0.70
2013-5-19,79.1,69.3,64.8,71.2,66.8,63.9,98,92,67,30.18,30.09,18,2,18,0.55
2013-5-20,74.0,69.8,67.1,71.8,68.6,66.2,98,96,86,30.15,30.06,11,2,11,0.90
2013-5-21,84.4,73.0,68.5,73.3,69.1,66.4,98,88,64,30.08,29.98,11,3,14,0.00
2013-5-22,84.4,75.2,69.3,70.5,68.1,66.2,95,80,56,30.06,29.93,14,4,16,0.00
2013-5-23,84.5,72.7,68.6,70.4,68.0,65.6,97,86,55,29.99,29.84,11,2,11,0.25
2013-5-24,70.9,65.2,54.0,67.7,53.7,38.0,97,69,38,30.21,29.83,21,4,27,0.01
2013-5-25,74.5,59.7,44.1,49.1,41.0,35.0,88,54,25,30.30,30.16,15,2,15,0.00
2013-5-26,74.7,61.9,49.7,53.2,45.4,40.0,86,58,31,30.31,30.20,14,2,14,0.00
2013-5-27,81.1,66.8,50.3,55.5,51.6,48.3,94,63,35,30.32,30.19,12,2,12,0.00
2013-5-28,84.7,73.3,59.9,67.1,61.4,54.0,89,68,53,30.29,30.17,13,3,17,0.00
2013-5-29,85.4,75.8,63.6,65.7,63.5,60.8,93,68,46,30.27,30.18,15,3,17,0.00
2013-5-30,88.2,76.8,64.2,68.3,64.3,59.9,94,68,40,30.30,30.20,12,2,12,0.00
2013-5-31,88.9,78.5,66.8,70.2,66.7,63.6,94,69,44,30.25,30.12,11,2,12,0.00
2013-6-1,89.6,79.5,68.2,69.7,66.8,62.9,95,68,43,30.17,30.04,13,4,13,0.00
2013-6-2,86.5,78.4,68.9,69.7,66.8,64.0,91,69,48,30.08,29.92,16,5,17,0.00
2013-6-3,84.7,74.9,68.8,73.2,70.7,67.0,97,87,63,29.98,29.85,13,2,13,0.11
2013-6-4,81.6,72.9,66.2,67.1,64.1,61.1,98,76,52,30.13,29.95,8,2,10,0.00
2013-6-5,83.3,72.9,62.1,63.4,60.0,51.7,94,67,34,30.18,30.05,12,2,12,0.00
2013-6-6,74.8,70.1,65.4,72.8,66.4,57.8,98,88,66,30.09,29.85,11,2,12,0.80
2013-6-7,78.3,71.5,68.7,76.1,70.5,68.1,98,97,88,29.89,29.46,21,2,21,2.75
2013-6-8,84.6,74.5,67.4,71.6,69.2,64.7,99,85,59,30.12,29.84,10,1,11,0.03
2013-6-9,88.1,77.1,67.1,74.0,70.1,66.1,98,81,56,30.19,30.08,13,2,14,0.10
2013-6-10,82.0,74.7,71.5,78.0,72.3,70.1,97,92,75,30.13,29.92,17,4,17,0.43
2013-6-11,88.0,78.5,70.8,70.5,67.8,64.3,93,72,47,29.97,29.91,11,2,14,0.00
2013-6-12,91.9,80.0,65.7,74.3,69.8,63.8,95,73,50,30.00,29.88,14,1,14,0.00
2013-6-13,96.9,81.8,70.1,76.9,71.6,63.3,94,75,41,29.89,29.60,25,2,40,0.12
2013-6-14,79.8,72.0,63.3,67.7,60.1,56.1,91,68,46,30.04,29.73,17,3,17,0.00
2013-6-15,87.3,73.8,59.3,64.4,60.9,57.5,95,68,39,30.15,30.03,10,1,11,0.00
2013-6-16,89.6,77.6,65.6,68.6,63.3,55.2,79,62,49,30.15,30.02,15,3,15,0.00
2013-6-17,86.8,78.4,72.4,72.6,68.6,65.1,86,72,59,30.06,29.95,12,3,13,0.00
2013-6-18,83.9,75.0,69.5,73.5,70.8,68.0,97,87,68,29.99,29.72,16,3,20,0.24
2013-6-19,80.7,73.5,65.8,69.1,67.1,64.7,98,82,60,30.15,29.89,8,2,9,0.01
2013-6-20,83.4,73.2,63.4,66.2,62.6,54.9,96,72,48,30.28,30.15,8,1,10,0.00
2013-6-21,84.3,71.4,58.1,68.4,59.9,53.0,93,69,40,30.29,30.21,9,1,9,0.00
2013-6-22,82.1,73.1,68.9,72.8,69.6,67.2,97,89,69,30.24,30.14,9,1,9,0.06
2013-6-23,86.1,76.0,68.4,75.6,71.5,67.8,98,87,62,30.24,30.15,11,2,14,0.85
2013-6-24,85.0,77.6,72.2,77.6,73.3,70.5,96,87,71,30.23,30.11,11,2,11,0.48
2013-6-25,90.5,77.6,70.8,77.5,71.9,68.8,94,83,61,30.16,30.02,13,2,20,0.08
2013-6-26,92.3,78.4,69.3,75.4,71.2,67.4,97,81,50,30.06,29.91,20,2,20,0.55
2013-6-27,90.7,77.6,68.8,76.5,71.6,67.1,97,83,56,29.94,29.73,14,3,14,0.01
2013-6-28,94.2,79.9,71.9,74.7,72.1,67.9,97,79,49,29.78,29.59,23,3,28,0.54
2013-6-29,86.0,76.6,69.3,74.6,71.7,68.7,98,86,65,29.76,29.62,11,2,11,0.66
2013-6-30,86.9,77.2,70.7,75.9,72.8,69.5,97,87,65,29.90,29.74,16,3,19,0.28
2013-7-1,83.3,75.8,70.7,75.6,72.5,69.5,98,90,73,30.03,29.86,13,3,14,0.97
2013-7-2,78.8,74.1,71.2,74.4,72.4,70.1,98,95,84,30.22,30.02,11,3,12,0.49
2013-7-3,86.1,76.9,73.4,77.9,74.2,71.9,98,92,70,30.27,30.18,9,2,10,1.02
2013-7-4,90.1,79.8,72.9,76.9,73.2,69.6,98,82,52,30.31,30.21,13,3,15,0.02
2013-7-5,90.6,81.2,72.2,76.0,73.2,71.0,97,78,56,30.31,30.18,12,3,12,0.00
2013-7-6,88.4,79.0,73.5,75.8,73.0,70.7,96,83,58,30.28,30.14,9,2,11,0.02
2013-7-7,88.6,80.3,70.5,75.2,72.3,68.9,96,78,60,30.22,30.08,12,3,13,0.00
2013-7-8,88.6,78.0,72.6,76.6,73.4,71.3,97,86,66,30.19,30.11,10,2,13,0.31
2013-7-9,82.3,74.4,72.1,74.8,72.7,71.0,98,94,71,30.18,30.09,8,1,8,0.05
2013-7-10,89.1,79.6,73.7,77.0,74.2,70.2,97,84,65,30.14,29.97,15,3,15,0.02
2013-7-11,84.8,76.2,73.0,75.2,72.9,70.8,98,90,71,30.01,29.91,9,2,9,0.42
2013-7-12,77.9,73.5,70.9,73.0,71.4,69.5,98,93,81,30.06,29.90,7,1,8,0.03
2013-7-13,82.0,74.3,70.4,77.0,72.4,69.2,98,94,80,30.22,30.04,11,1,15,0.84
2013-7-14,88.7,79.4,70.5,76.7,73.1,69.8,98,82,60,30.33,30.22,8,2,10,0.00
2013-7-15,90.6,78.9,70.6,75.7,72.2,68.5,98,82,50,30.35,30.26,7,1,7,0.00
2013-7-16,94.1,82.6,70.4,80.3,74.0,69.2,96,77,52,30.30,30.19,11,1,11,0.00
2013-7-17,94.5,84.9,74.9,77.8,74.8,70.9,95,74,48,30.24,30.12,7,1,7,0.00
2013-7-18,95.4,84.5,75.4,79.1,75.8,73.6,95,77,51,30.16,30.05,10,1,10,0.00
2013-7-19,92.8,83.5,75.5,77.7,74.9,71.7,95,77,55,30.11,30.00,14,3,14,0.00
2013-7-20,90.8,81.1,76.1,76.0,73.9,72.2,89,80,58,30.06,29.93,13,3,14,0.00
2013-7-21,89.0,78.4,72.9,76.9,73.3,71.1,97,85,62,30.02,29.92,20,2,25,0.78
2013-7-22,88.8,79.3,72.2,76.9,73.9,71.3,98,84,64,29.98,29.84,12,2,13,0.00
2013-7-23,91.6,82.1,75.6,74.5,73.1,71.8,91,76,54,29.87,29.74,9,2,9,0.00
2013-7-24,94.7,82.6,72.4,74.8,71.5,65.3,94,72,45,29.87,29.74,20,1,20,0.00
2013-7-25,80.4,74.7,69.5,71.4,69.1,65.5,96,83,69,30.06,29.83,11,2,12,0.02
2013-7-26,85.8,74.9,63.1,69.6,64.4,59.8,95,72,46,30.14,30.04,7,1,8,0.00
2013-7-27,87.1,75.5,68.6,72.1,69.0,66.2,97,82,51,30.09,29.96,10,2,12,0.06
2013-7-28,88.5,78.4,70.6,74.2,71.8,69.0,97,82,54,30.03,29.94,11,2,13,0.01
2013-7-29,88.4,78.1,71.4,73.6,69.2,64.4,95,75,48,30.17,30.01,10,2,10,0.01
2013-7-30,88.4,77.4,64.7,71.2,66.0,61.3,91,70,43,30.25,30.16,7,1,8,0.00
2013-7-31,83.4,76.4,71.7,74.2,71.6,67.5,96,86,70,30.17,30.03,10,1,10,0.12
2013-8-1,83.9,74.9,70.7,75.8,71.6,69.2,97,90,70,30.05,29.88,8,2,9,0.28
2013-8-2,89.6,78.6,67.6,73.0,70.3,66.7,98,78,53,30.04,29.92,8,1,9,0.02
2013-8-3,89.8,78.6,71.8,76.8,73.6,70.4,97,86,57,30.04,29.92,11,2,12,0.13
2013-8-4,84.4,75.7,68.2,73.6,68.3,60.0,98,80,44,30.06,29.90,10,1,11,0.01
2013-8-5,83.7,72.7,62.9,68.3,63.3,58.7,95,75,45,30.13,30.03,8,1,8,0.00
2013-8-6,83.3,75.2,67.9,70.1,67.5,63.6,96,78,58,30.09,30.02,11,2,11,0.09
2013-8-7,87.8,77.4,68.2,71.7,68.9,66.5,95,77,51,30.13,30.05,12,2,13,0.00
2013-8-8,89.2,79.9,71.2,74.0,71.5,69.4,96,77,55,30.09,30.01,9,2,11,0.00
2013-8-9,93.4,83.6,74.6,76.1,74.3,72.4,95,75,55,30.07,29.99,13,2,14,0.00
2013-8-10,95.3,82.3,74.9,79.4,75.2,71.5,96,81,54,30.12,30.01,12,2,14,0.26
2013-8-11,93.6,81.4,73.0,77.7,74.3,71.8,97,81,53,30.13,30.02,7,1,9,0.00
2013-8-12,93.5,82.9,73.6,76.4,73.4,67.2,96,75,46,30.07,29.95,10,1,10,0.00
2013-8-13,91.0,77.9,71.9,79.8,74.3,70.9,98,90,61,30.02,29.79,23,2,24,1.50
2013-8-14,76.5,71.7,62.6,74.2,66.4,59.2,97,84,63,30.12,29.84,9,2,13,0.00
2013-8-15,77.8,66.8,60.1,63.0,59.3,56.5,91,78,49,30.19,30.11,8,1,8,0.00
2013-8-16,72.9,67.2,60.2,63.7,61.1,57.3,93,82,65,30.21,30.13,6,1,7,0.00
2013-8-17,72.7,68.1,64.1,71.8,66.2,61.1,98,93,88,30.21,30.14,8,1,9,0.21
2013-8-18,83.1,73.9,68.2,72.2,69.4,66.1,99,87,67,30.23,30.14,13,2,13,0.00
2013-8-19,74.6,69.9,66.2,71.7,68.2,65.2,98,94,86,30.23,30.13,9,1,9,0.90
2013-8-20,82.8,74.9,67.7,74.5,71.1,67.0,99,89,72,30.22,30.13,7,1,7,0.00
2013-8-21,84.2,75.4,70.8,79.4,73.1,69.9,98,93,74,30.25,30.12,9,1,10,1.81
2013-8-22,90.4,79.3,69.5,75.7,71.8,68.4,99,80,52,30.17,30.01,10,1,11,0.00
2013-8-23,90.0,78.7,70.1,75.3,71.6,67.5,97,80,56,30.09,29.94,13,2,15,0.00
2013-8-24,84.5,73.9,64.6,67.5,63.7,60.0,94,73,45,30.33,30.09,9,2,10,0.00
2013-8-25,81.5,71.1,62.3,66.1,61.6,55.6,95,74,43,30.42,30.31,8,1,9,0.00
2013-8-26,84.2,70.3,56.3,64.9,60.1,54.8,96,73,42,30.35,30.14,8,1,8,0.00
2013-8-27,89.9,73.8,62.6,72.5,64.8,59.3,92,75,49,30.15,29.99,8,1,8,0.00